WEATHER DATA

YESTERDAY
Time Temp. Dewp. Hum. Bar.
00:06 12.2 6.5 68 1016.7
00:26 12.2 6.5 68 1016.6
00:36 12.1 6.4 68 1016.5
00:46 12.1 6.4 68 1016.5
00:56 12 6.3 68 1016.5
01:07 12 6.3 68 1016.4
01:17 12 6.3 68 1016.4
01:27 11.9 6.2 68 1016.4
01:36 11.9 6.2 68 1016.3
01:47 11.9 6.2 68 1016.3
01:57 11.8 6.1 68 1016.2
02:07 11.8 6.1 68 1016.2
02:17 11.7 6 68 1016.1
02:27 11.7 6 68 1016
02:37 11.7 6 68 1016
02:47 11.7 6 68 1015.8
02:58 11.6 5.9 68 1015.8
03:08 11.6 5.9 68 1015.7
03:17 11.6 5.9 68 1015.7
03:28 11.6 5.9 68 1015.6
03:38 11.5 5.8 68 1015.6
03:48 11.5 5.8 68 1015.5
03:58 11.5 5.8 68 1015.4
04:09 11.5 5.8 68 1015.4
04:18 11.4 5.7 68 1015.4
04:28 11.4 5.7 68 1015.4
04:38 11.4 5.7 68 1015.3
04:49 11.3 5.6 68 1015.3
04:59 11.3 5.6 68 1015.3
05:08 11.3 5.6 68 1015.2
05:19 11.3 5.6 68 1015.2
05:29 11.2 5.5 68 1015.3
05:39 11.2 5.5 68 1015.3
05:49 11.2 5.5 68 1015.3
05:59 11.2 5.5 68 1015.3
06:09 11.2 5.5 68 1015.3
06:19 11.3 5.6 68 1015.3
06:29 11.3 5.6 68 1015.3
06:40 11.4 5.5 67 1015.2
06:50 11.5 5.6 67 1015.3
06:59 11.5 5.6 67 1015.3
07:10 11.6 5.7 67 1015.4
07:20 11.7 5.8 67 1015.3
07:30 11.9 5.8 66 1015.3
07:40 12 5.9 66 1015.3
07:50 12.1 5.9 66 1015.3
08:00 12.2 6 66 1015.2
08:10 12.4 6.2 66 1015.2
08:21 12.5 6.1 65 1015.3
08:31 12.6 6.2 65 1015.3
08:40 12.7 6.3 65 1015.3
08:50 12.8 6.4 65 1015.3
09:01 12.9 6.5 65 1015.2
09:11 13 6.6 65 1015.3
09:21 13.1 6.5 64 1015.3
09:32 13.2 6.5 64 1015.3
09:41 13.3 6.6 64 1015.4
09:51 13.3 6.6 64 1015.3
10:01 13.3 6.6 64 1015.4
10:12 13.4 6.7 64 1015.4
10:21 13.5 6.8 64 1015.5
10:31 13.6 6.9 64 1015.5
10:42 13.7 7 64 1015.5
10:52 13.7 7 64 1015.5
11:02 13.7 7 64 1015.5
11:12 13.8 7.1 64 1015.4
11:22 13.9 7.2 64 1015.4
11:32 14 7.1 63 1015.4
11:42 14.1 7.2 63 1015.4
11:53 14.2 7.3 63 1015.5
12:03 14.3 7.4 63 1015.4
12:12 14.4 7.5 63 1015.4
12:22 14.5 7.5 63 1015.3
12:33 14.6 7.6 63 1015.2
12:43 14.7 7.7 63 1015.2
12:53 14.8 7.6 62 1015.2
13:03 14.8 7.8 63 1015.2
13:13 14.9 7.9 63 1015.2
13:23 14.9 7.7 62 1015.2
13:33 15 7.8 62 1015.1
13:44 15.1 7.9 62 1015
13:54 15.1 7.9 62 1014.8
14:03 15.2 8 62 1014.8
14:14 15.3 8.1 62 1014.8
14:24 15.4 8.2 62 1014.8
14:34 15.5 8.3 62 1014.7
14:44 15.4 8.2 62 1014.7
14:55 15.5 8.3 62 1014.6
15:04 15.5 8.3 62 1014.5
15:14 15.7 8.2 61 1014.6
15:24 15.8 8.3 61 1014.5
15:35 15.8 8.3 61 1014.5
15:45 15.8 8.3 61 1014.5
15:54 15.7 8.4 62 1014.4
16:05 15.7 8.4 62 1014.4
16:15 15.8 8.5 62 1014.4
16:25 15.8 8.5 62 1014.3
16:35 15.9 8.6 62 1014.3
16:45 15.9 8.6 62 1014.3
16:55 15.9 8.6 62 1014.3
17:05 15.9 8.6 62 1014.3
17:15 15.9 8.6 62 1014.2
17:26 15.9 8.6 62 1014.2
17:36 15.9 8.6 62 1014.1
17:45 15.9 8.6 62 1014
17:56 15.9 8.6 62 1013.8
18:06 15.8 8.5 62 1013.8
18:16 15.8 8.5 62 1013.8
18:26 15.9 8.9 63 1013.7
18:36 16 8.7 62 1013.7
18:46 16.5 9.2 62 1013.6
18:56 17.7 9.8 60 1013.6
19:07 18.7 10 57 1013.5
19:17 19 10 56 1013.6
19:26 18.6 9.7 56 1013.5
19:36 18.1 9.5 57 1013.5
19:47 17.7 9.3 58 1013.6
19:57 17.3 9.2 59 1013.6
20:07 17 9.2 60 1013.5
20:18 16.6 8.8 60 1013.5
20:27 16.4 8.9 61 1013.6
20:37 16.1 8.6 61 1013.6
20:47 15.9 8.6 62 1013.6
20:58 15.6 8.6 63 1013.7
21:08 15.4 8.4 63 1013.8
21:17 15.2 8.4 64 1013.8
21:28 15 8.3 64 1013.8
21:38 14.9 8.2 64 1013.8
21:48 14.8 8.3 65 1013.8
21:58 14.7 8.2 65 1014
22:09 14.6 8.1 65 1014
22:18 14.5 8 65 1014.1
22:28 14.4 7.9 65 1014.1
22:38 14.3 7.8 65 1014.1
22:49 14.2 7.9 66 1014.1
22:59 14.2 7.9 66 1014.1
23:08 14.1 7.9 66 1014.1
23:19 14.1 7.9 66 1014.2
23:29 14 7.8 66 1014.2
23:39 14 7.8 66 1014.2
23:49 13.9 7.7 66 1014.2

DAY STATISTIC

2019-05-24
TEMPERATURE
AVERAGE
13.9
HIGH
19.0
19:17
LOW
11.2
05:29
PRESSURE
AVERAGE
1014.9
HIGH
1016.7
00:06
LOW
1013.5
19:07
DEWPOINT
AVERAGE
7.3
HIGH
10.0
19:07
LOW
5.5
05:29
HUMIDITY
AVERAGE
64
HIGH
68
00:06
LOW
56
19:17
TEMPERATURE (°C)
LOW
11.2
HIGH
19.0
AVERAGE
13.9
PRESSURE (hpa)
LOW
1013.5
HIGH
1016.7
AVERAGE
1014.9
DEVICE